createdAt,value
2019-02-04T00:01:26.919Z,23.63
2019-02-04T00:03:58.923Z,20.90
2019-02-04T00:06:28.280Z,23.70
2019-02-04T00:08:57.829Z,19.33
2019-02-04T00:11:27.269Z,22.03
2019-02-04T00:13:56.892Z,23.97
2019-02-04T00:16:26.484Z,22.03
2019-02-04T00:18:55.890Z,21.27
2019-02-04T00:21:25.241Z,25.10
2019-02-04T00:23:54.580Z,25.67
2019-02-04T00:26:23.910Z,20.90
2019-02-04T00:28:53.264Z,23.57
2019-02-04T00:31:23.801Z,22.87
2019-02-04T00:33:53.311Z,28.23
2019-02-04T00:36:22.668Z,27.07
2019-02-04T00:38:52.041Z,25.07
2019-02-04T00:41:21.377Z,22.23
2019-02-04T00:43:50.746Z,24.30
2019-02-04T00:46:20.232Z,27.77
2019-02-04T00:48:49.564Z,26.70
2019-02-04T00:51:18.952Z,24.43
2019-02-04T00:53:48.407Z,22.80
2019-02-04T00:56:17.798Z,24.80
2019-02-04T00:58:47.168Z,35.00
2019-02-04T01:01:16.543Z,29.07
2019-02-04T01:03:45.959Z,25.33
2019-02-04T01:06:15.318Z,31.27
2019-02-04T01:08:44.670Z,28.00
2019-02-04T01:11:14.080Z,28.87
2019-02-04T01:13:43.690Z,28.10
2019-02-04T01:16:13.060Z,27.57
2019-02-04T01:18:42.508Z,27.93
2019-02-04T01:21:11.991Z,26.00
2019-02-04T01:23:41.342Z,24.03
2019-02-04T01:26:10.808Z,23.30
2019-02-04T01:28:40.376Z,23.80
2019-02-04T01:31:09.831Z,26.20
2019-02-04T01:33:39.265Z,29.70
2019-02-04T01:36:08.744Z,26.30
2019-02-04T01:38:38.144Z,31.53
2019-02-04T01:41:07.659Z,26.70
2019-02-04T01:43:37.062Z,29.43
2019-02-04T01:46:06.459Z,30.80
2019-02-04T01:48:35.792Z,33.03
2019-02-04T01:51:05.174Z,33.03
2019-02-04T01:53:34.511Z,30.17
2019-02-04T01:56:04.356Z,36.87
2019-02-04T01:58:33.806Z,35.80
2019-02-04T02:01:03.223Z,30.57
2019-02-04T02:03:32.572Z,28.50
2019-02-04T02:06:01.944Z,37.57
2019-02-04T02:08:31.367Z,38.73
2019-02-04T02:11:00.890Z,29.90
2019-02-04T02:13:30.218Z,32.77
2019-02-04T02:15:59.547Z,34.37
2019-02-04T02:18:28.893Z,36.27
2019-02-04T02:20:58.213Z,35.07
2019-02-04T02:23:27.623Z,30.70
2019-02-04T02:25:56.916Z,29.97
2019-02-04T02:28:26.273Z,35.73
2019-02-04T02:30:55.597Z,30.27
2019-02-04T02:33:24.924Z,32.77
2019-02-04T02:35:54.347Z,33.93
2019-02-04T02:38:24.188Z,40.03
2019-02-04T02:40:53.514Z,34.43
2019-02-04T02:43:22.868Z,35.03
2019-02-04T02:45:52.193Z,35.40
2019-02-04T02:48:21.529Z,36.73
2019-02-04T02:50:51.062Z,38.77
2019-02-04T02:53:20.745Z,39.93
2019-02-04T02:55:50.116Z,36.97
2019-02-04T02:58:19.433Z,39.80
2019-02-04T03:00:48.794Z,36.70
2019-02-04T03:03:18.104Z,34.13
2019-02-04T03:05:47.488Z,30.90
2019-02-04T03:08:16.999Z,33.93
2019-02-04T03:10:46.478Z,32.83
2019-02-04T03:13:15.807Z,38.53
2019-02-04T03:15:45.148Z,38.43
2019-02-04T03:18:14.546Z,32.47
2019-02-04T03:20:43.994Z,34.80
2019-02-04T03:23:13.406Z,33.77
2019-02-04T03:25:42.858Z,37.10
2019-02-04T03:28:12.205Z,33.63
2019-02-04T03:30:41.669Z,32.90
2019-02-04T03:33:11.113Z,38.93
2019-02-04T03:35:40.787Z,33.47
2019-02-04T03:38:10.175Z,33.03
2019-02-04T03:40:39.668Z,36.70
2019-02-04T03:43:09.027Z,35.83
2019-02-04T03:45:38.479Z,36.90
2019-02-04T03:48:09.680Z,36.03
2019-02-04T03:50:39.141Z,32.83
2019-02-04T03:53:08.670Z,34.07
2019-02-04T03:55:38.041Z,31.43
2019-02-04T03:58:07.497Z,32.30
2019-02-04T04:00:37.517Z,34.33
2019-02-04T04:03:07.325Z,38.07
2019-02-04T04:05:36.793Z,33.53
2019-02-04T04:08:06.162Z,29.67
2019-02-04T04:10:35.569Z,33.57
2019-02-04T04:13:04.977Z,31.17
2019-02-04T04:15:34.363Z,30.63
2019-02-04T04:18:15.055Z,36.37
2019-02-04T04:20:35.089Z,29.17
2019-02-04T04:23:04.484Z,33.43
2019-02-04T04:25:33.827Z,33.70
2019-02-04T04:28:03.217Z,32.40
2019-02-04T04:30:32.579Z,30.87
2019-02-04T04:33:02.040Z,33.33
2019-02-04T04:35:31.375Z,38.80
2019-02-04T04:38:00.851Z,34.13
2019-02-04T04:40:30.251Z,29.87
2019-02-04T04:42:59.603Z,31.70
2019-02-04T04:45:28.988Z,34.97
2019-02-04T04:47:58.401Z,27.07
2019-02-04T04:50:27.843Z,27.80
2019-02-04T04:52:57.203Z,31.93
2019-02-04T04:55:27.060Z,28.97
2019-02-04T04:57:56.582Z,28.30
2019-02-04T05:00:29.041Z,27.17
2019-02-04T05:02:58.565Z,29.30
2019-02-04T05:05:28.242Z,27.30
2019-02-04T05:07:57.946Z,28.60
2019-02-04T05:10:27.438Z,28.30
2019-02-04T05:12:56.921Z,27.07
2019-02-04T05:15:27.362Z,29.60
2019-02-04T05:17:56.935Z,28.27
2019-02-04T05:20:26.394Z,27.33
2019-02-04T05:22:55.744Z,28.17
2019-02-04T05:25:25.139Z,25.93
2019-02-04T05:27:54.947Z,23.97
2019-02-04T05:30:25.278Z,27.27
2019-02-04T05:32:54.613Z,29.97
2019-02-04T05:35:24.013Z,25.70
2019-02-04T05:37:53.463Z,24.77
2019-02-04T05:40:22.919Z,26.13
2019-02-04T05:42:52.353Z,24.77
2019-02-04T05:45:22.097Z,27.13
2019-02-04T05:47:51.479Z,26.40
2019-02-04T05:50:21.118Z,25.00
2019-02-04T05:52:50.707Z,23.47
2019-02-04T05:55:21.532Z,23.30
2019-02-04T05:57:50.887Z,26.40
2019-02-04T06:00:31.879Z,21.67
2019-02-04T06:03:01.405Z,25.23
2019-02-04T06:05:30.938Z,25.70
2019-02-04T06:08:00.743Z,21.50
2019-02-04T06:10:30.138Z,24.20
2019-02-04T06:12:59.721Z,25.20
2019-02-04T06:15:29.105Z,27.70
2019-02-04T06:17:58.461Z,27.03
2019-02-04T06:20:27.828Z,25.53
2019-02-04T06:22:57.326Z,29.10
2019-02-04T06:25:26.777Z,23.20
2019-02-04T06:27:56.336Z,24.27
2019-02-04T06:30:25.726Z,23.73
2019-02-04T06:32:55.457Z,24.40
2019-02-04T06:35:24.910Z,24.50
2019-02-04T06:37:54.630Z,24.33
2019-02-04T06:40:24.075Z,20.70
2019-02-04T06:42:53.572Z,22.87
2019-02-04T06:45:22.990Z,24.93
2019-02-04T06:47:52.367Z,20.73
2019-02-04T06:50:22.144Z,19.93
2019-02-04T06:52:51.574Z,25.30
2019-02-04T06:55:23.621Z,21.80
2019-02-04T06:57:53.457Z,23.87
2019-02-04T07:00:22.939Z,17.37
2019-02-04T07:02:52.955Z,21.13
2019-02-04T07:05:26.813Z,19.00
2019-02-04T07:07:56.179Z,21.47
2019-02-04T07:10:26.180Z,20.00
2019-02-04T07:12:55.699Z,18.80
2019-02-04T07:15:25.126Z,17.63
2019-02-04T07:17:54.890Z,22.43
2019-02-04T07:20:25.207Z,11.00
2019-02-04T07:22:54.852Z,21.00
2019-02-04T07:25:25.067Z,21.13
2019-02-04T07:27:54.516Z,20.63
2019-02-04T07:30:25.593Z,23.13
2019-02-04T07:32:55.375Z,22.17
2019-02-04T07:35:24.942Z,16.70
2019-02-04T07:37:54.600Z,15.67
2019-02-04T07:40:29.212Z,18.30
2019-02-04T07:42:59.038Z,14.47
2019-02-04T07:45:28.737Z,16.73
2019-02-04T07:47:58.298Z,15.47
2019-02-04T07:50:36.276Z,14.87
2019-02-04T07:53:06.195Z,16.83
2019-02-04T07:55:35.776Z,17.87
2019-02-04T07:58:05.161Z,16.53
2019-02-04T08:00:34.941Z,13.60
2019-02-04T08:03:04.718Z,14.80
2019-02-04T08:05:34.435Z,16.77
2019-02-04T08:08:03.864Z,16.63
2019-02-04T08:10:33.482Z,18.00
2019-02-04T08:13:03.639Z,19.50
2019-02-04T08:15:35.656Z,16.07
2019-02-04T08:18:06.190Z,11.87
2019-02-04T08:20:35.636Z,17.53
2019-02-04T08:23:05.126Z,14.30
2019-02-04T08:25:34.661Z,12.23
2019-02-04T08:28:04.252Z,14.83
2019-02-04T08:30:37.918Z,16.17
2019-02-04T08:33:06.549Z,19.13
2019-02-04T08:35:35.906Z,20.13
2019-02-04T08:38:05.530Z,22.20
2019-02-04T08:40:35.360Z,13.97
2019-02-04T08:43:05.007Z,13.20
2019-02-04T08:45:34.569Z,12.47
2019-02-04T08:48:05.151Z,15.83
2019-02-04T08:50:34.578Z,13.80
2019-02-04T08:53:04.084Z,14.90
2019-02-04T08:55:33.811Z,15.80
2019-02-04T08:58:03.270Z,11.20
2019-02-04T09:00:32.705Z,13.17
2019-02-04T09:03:02.134Z,11.17
2019-02-04T09:05:31.579Z,13.27
2019-02-04T09:08:00.974Z,13.87
2019-02-04T09:10:32.008Z,12.97
2019-02-04T09:13:01.957Z,13.90
2019-02-04T09:15:31.422Z,14.57
2019-02-04T09:18:01.684Z,14.80
2019-02-04T09:20:31.144Z,13.70
2019-02-04T09:23:00.590Z,14.37
2019-02-04T09:25:30.032Z,14.93
2019-02-04T09:27:59.648Z,14.97
2019-02-04T09:30:29.512Z,15.23
2019-02-04T09:32:59.404Z,15.77
2019-02-04T09:35:29.132Z,13.40
2019-02-04T09:37:58.549Z,11.20
2019-02-04T09:40:33.725Z,15.47
2019-02-04T09:43:03.169Z,14.97
2019-02-04T09:45:32.648Z,17.83
2019-02-04T09:48:02.147Z,16.23
2019-02-04T09:50:32.775Z,14.80
2019-02-04T09:53:02.143Z,14.03
2019-02-04T09:55:33.707Z,12.27
2019-02-04T09:58:03.107Z,12.70
2019-02-04T10:00:34.206Z,13.97
2019-02-04T10:03:03.841Z,10.77
2019-02-04T10:05:33.263Z,15.10
2019-02-04T10:08:02.996Z,11.60
2019-02-04T10:10:32.355Z,12.10
2019-02-04T10:13:01.728Z,11.70
2019-02-04T10:15:33.506Z,13.37
2019-02-04T10:18:02.925Z,11.67
2019-02-04T10:20:34.494Z,11.90
2019-02-04T10:23:03.629Z,10.40
2019-02-04T10:25:35.039Z,9.67
2019-02-04T10:28:04.529Z,13.97
2019-02-04T10:30:33.934Z,11.23
2019-02-04T10:33:03.302Z,11.63
2019-02-04T10:35:33.012Z,10.23
2019-02-04T10:38:02.432Z,12.87
2019-02-04T10:40:32.335Z,12.03
2019-02-04T10:43:01.898Z,12.70
2019-02-04T10:45:31.442Z,12.67
2019-02-04T10:48:00.961Z,12.13
2019-02-04T10:50:32.384Z,9.73
2019-02-04T10:53:01.913Z,9.97
2019-02-04T10:55:31.346Z,14.40
2019-02-04T10:58:00.846Z,11.23
2019-02-04T11:00:32.655Z,10.80
2019-02-04T11:03:02.080Z,22.00
2019-02-04T11:05:33.620Z,12.80
2019-02-04T11:08:03.112Z,11.47
2019-02-04T11:10:34.386Z,14.03
2019-02-04T11:13:06.517Z,14.67
2019-02-04T11:15:35.940Z,11.30
2019-02-04T11:18:05.919Z,13.40
2019-02-04T11:20:35.540Z,20.73
2019-02-04T11:23:06.499Z,12.93
2019-02-04T11:25:36.019Z,14.83
2019-02-04T11:28:06.254Z,7.03
2019-02-04T11:30:38.308Z,10.20
2019-02-04T11:33:08.114Z,12.33
2019-02-04T11:35:37.582Z,8.23
2019-02-04T11:38:07.562Z,14.50
2019-02-04T11:40:38.524Z,11.03
2019-02-04T11:43:08.172Z,12.87
2019-02-04T11:45:37.856Z,11.60
2019-02-04T11:48:09.173Z,12.60
2019-02-04T11:50:38.793Z,10.60
2019-02-04T11:53:08.162Z,13.53
2019-02-04T11:55:37.518Z,11.83
2019-02-04T11:58:08.071Z,19.60
2019-02-04T12:00:37.853Z,17.00
2019-02-04T12:03:07.824Z,9.20
2019-02-04T12:05:37.255Z,13.10
2019-02-04T12:08:06.763Z,12.07
2019-02-04T12:10:39.394Z,13.77
2019-02-04T12:13:08.744Z,12.57
2019-02-04T12:15:38.187Z,12.43
2019-02-04T12:18:07.647Z,10.43
2019-02-04T12:20:39.845Z,9.63
2019-02-04T12:23:08.078Z,9.23
2019-02-04T12:25:37.830Z,8.27
2019-02-04T12:28:07.225Z,10.03
2019-02-04T12:30:38.606Z,14.50
2019-02-04T12:33:09.813Z,10.30
2019-02-04T12:35:39.307Z,13.10
2019-02-04T12:38:08.652Z,11.03
2019-02-04T12:40:38.451Z,12.60
2019-02-04T12:43:07.847Z,10.87
2019-02-04T12:45:37.417Z,12.10
2019-02-04T12:48:07.677Z,11.20
2019-02-04T12:50:37.030Z,8.33
2019-02-04T12:53:06.814Z,9.43
2019-02-04T12:55:36.156Z,10.20
2019-02-04T12:58:06.131Z,7.70
2019-02-04T13:00:35.562Z,10.33
2019-02-04T13:03:05.704Z,7.57
2019-02-04T13:05:37.584Z,11.07
2019-02-04T13:08:08.500Z,7.60
2019-02-04T13:10:37.817Z,7.67
2019-02-04T13:13:10.297Z,9.73
2019-02-04T13:15:39.772Z,6.10
2019-02-04T13:18:09.420Z,6.83
2019-02-04T13:20:39.255Z,7.57
2019-02-04T13:23:08.833Z,7.57
2019-02-04T13:25:38.241Z,5.53
2019-02-04T13:28:12.528Z,8.03
2019-02-04T13:30:41.996Z,6.47
2019-02-04T13:33:12.146Z,6.87
2019-02-04T13:35:41.618Z,8.13
2019-02-04T13:38:11.167Z,8.47
2019-02-04T13:40:44.371Z,7.43
2019-02-04T13:43:13.579Z,5.33
2019-02-04T13:45:43.118Z,6.87
2019-02-04T13:48:12.996Z,9.90
2019-02-04T13:50:42.366Z,5.40
2019-02-04T13:53:11.700Z,7.37
2019-02-04T13:55:41.260Z,6.57
2019-02-04T13:58:10.811Z,8.00
2019-02-04T14:00:40.235Z,6.83
2019-02-04T14:03:09.941Z,4.47
2019-02-04T14:05:39.280Z,6.73
2019-02-04T14:08:08.925Z,5.33
2019-02-04T14:10:40.506Z,6.97
2019-02-04T14:13:09.901Z,5.57
2019-02-04T14:15:40.085Z,6.43
2019-02-04T14:18:10.004Z,6.40
2019-02-04T14:20:39.359Z,7.23
2019-02-04T14:23:10.656Z,7.83
2019-02-04T14:25:40.028Z,8.03
2019-02-04T14:28:09.578Z,7.13
2019-02-04T14:30:39.598Z,6.57
2019-02-04T14:33:09.223Z,5.30
2019-02-04T14:35:38.662Z,4.77
2019-02-04T14:38:09.455Z,5.10
2019-02-04T14:40:39.176Z,5.07
2019-02-04T14:43:15.687Z,6.27
2019-02-04T14:46:17.926Z,8.00
2019-02-04T14:49:23.829Z,5.33
2019-02-04T14:52:31.371Z,5.93
2019-02-04T14:55:28.355Z,7.57
2019-02-04T14:58:25.068Z,10.63
2019-02-04T15:01:31.993Z,5.87
2019-02-04T15:04:31.361Z,5.30
2019-02-04T15:07:40.064Z,8.60
2019-02-04T15:11:05.824Z,4.80
2019-02-04T15:14:12.020Z,5.70
2019-02-04T15:17:25.695Z,4.97
2019-02-04T15:20:45.159Z,11.13
2019-02-04T15:24:08.457Z,4.93
2019-02-04T15:27:05.345Z,5.30
2019-02-04T15:29:48.237Z,4.27
2019-02-04T15:32:57.281Z,7.23
2019-02-04T15:36:10.542Z,5.33
2019-02-04T15:39:09.996Z,5.40
2019-02-04T15:42:03.991Z,7.07
2019-02-04T15:47:52.083Z,6.23
2019-02-04T15:50:43.777Z,5.30
2019-02-04T15:53:13.282Z,5.57
2019-02-04T15:55:42.749Z,3.50
2019-02-04T15:58:12.301Z,5.10
2019-02-04T16:00:41.745Z,7.50
2019-02-04T16:03:11.326Z,5.37
2019-02-04T16:05:41.375Z,4.37
2019-02-04T16:08:11.506Z,4.70
2019-02-04T16:10:41.005Z,7.10
2019-02-04T16:13:10.412Z,4.93
2019-02-04T16:15:42.265Z,4.57
2019-02-04T16:18:11.721Z,4.50
2019-02-04T16:20:41.243Z,5.20
2019-02-04T16:23:10.934Z,4.27
2019-02-04T16:25:40.481Z,5.50
2019-02-04T16:28:09.927Z,6.60
2019-02-04T16:30:39.779Z,6.47
2019-02-04T16:33:09.372Z,6.80
2019-02-04T16:35:39.079Z,6.00
2019-02-04T16:38:08.783Z,6.93
2019-02-04T16:40:38.411Z,6.83
2019-02-04T16:43:07.908Z,9.97
2019-02-04T16:45:37.440Z,5.50
2019-02-04T16:48:07.194Z,4.50
2019-02-04T16:50:36.633Z,7.27
2019-02-04T16:53:10.668Z,8.00
2019-02-04T16:55:37.295Z,7.27
2019-02-04T16:58:06.816Z,5.73
2019-02-04T17:00:36.198Z,9.33
2019-02-04T17:03:05.597Z,7.40
2019-02-04T17:05:35.222Z,5.30
2019-02-04T17:08:05.511Z,5.10
2019-02-04T17:10:34.927Z,6.67
2019-02-04T17:13:04.565Z,9.00
2019-02-04T17:15:34.021Z,7.17
2019-02-04T17:18:03.439Z,4.63
2019-02-04T17:20:33.998Z,7.23
2019-02-04T17:23:03.734Z,8.37
2019-02-04T17:25:33.256Z,5.73
2019-02-04T17:28:03.213Z,6.43
2019-02-04T17:30:32.861Z,5.73
2019-02-04T17:33:02.371Z,4.03
2019-02-04T17:35:31.905Z,4.97
2019-02-04T17:38:04.127Z,4.40
2019-02-04T17:40:33.595Z,4.57
2019-02-04T17:43:03.318Z,6.37
2019-02-04T17:45:32.771Z,4.57
2019-02-04T17:48:02.161Z,4.27
2019-02-04T17:50:31.696Z,4.20
2019-02-04T17:53:01.227Z,6.33
2019-02-04T17:55:30.778Z,4.03
2019-02-04T17:58:00.388Z,3.97
2019-02-04T18:00:36.574Z,2.93
2019-02-04T18:03:07.164Z,7.33
2019-02-04T18:05:36.656Z,5.60
2019-02-04T18:08:07.040Z,3.77
2019-02-04T18:10:37.031Z,7.07
2019-02-04T18:13:06.618Z,3.53
2019-02-04T18:15:36.085Z,3.10
2019-02-04T18:18:06.272Z,2.90
2019-02-04T18:20:35.644Z,10.10
2019-02-04T18:23:07.016Z,3.50
2019-02-04T18:25:36.533Z,4.07
2019-02-04T18:28:06.199Z,5.07
2019-02-04T18:30:36.160Z,6.83
2019-02-04T18:33:05.593Z,4.23
2019-02-04T18:35:35.581Z,3.13
2019-02-04T18:38:05.110Z,6.93
2019-02-04T18:40:34.739Z,6.97
2019-02-04T18:43:04.285Z,5.90
2019-02-04T18:45:33.826Z,4.53
2019-02-04T18:48:03.227Z,3.80
2019-02-04T18:50:33.156Z,5.97
2019-02-04T18:53:02.588Z,6.83
2019-02-04T18:55:33.252Z,5.13
2019-02-04T18:58:02.643Z,7.43
2019-02-04T19:00:32.701Z,6.50
2019-02-04T19:03:03.031Z,5.50
2019-02-04T19:05:32.794Z,6.93
2019-02-04T19:08:02.250Z,6.30
2019-02-04T19:10:31.784Z,6.83
2019-02-04T19:13:01.214Z,5.00
2019-02-04T19:15:30.807Z,6.00
2019-02-04T19:18:03.646Z,7.70
2019-02-04T19:20:33.137Z,8.73
2019-02-04T19:23:02.552Z,6.07
2019-02-04T19:25:31.987Z,6.43
2019-02-04T19:28:01.361Z,9.27
2019-02-04T19:30:36.559Z,6.77
2019-02-04T19:33:06.118Z,9.90
2019-02-04T19:35:35.636Z,6.77
2019-02-04T19:38:05.292Z,7.03
2019-02-04T19:40:34.888Z,8.67
2019-02-04T19:43:04.515Z,8.77
2019-02-04T19:45:34.232Z,9.87
2019-02-04T19:48:03.807Z,9.17
2019-02-04T19:50:33.384Z,8.10
2019-02-04T19:53:02.801Z,7.33
2019-02-04T19:55:32.223Z,8.40
2019-02-04T19:58:01.979Z,8.30
2019-02-04T20:00:31.697Z,8.53
2019-02-04T20:03:03.069Z,9.90
2019-02-04T20:05:32.920Z,8.83
2019-02-04T20:08:03.041Z,8.83
2019-02-04T20:10:33.794Z,10.77
2019-02-04T20:13:03.742Z,10.40
2019-02-04T20:15:33.468Z,10.50
2019-02-04T20:18:04.318Z,9.63
2019-02-04T20:20:33.818Z,10.07
2019-02-04T20:23:03.418Z,7.10
2019-02-04T20:25:32.948Z,10.40
2019-02-04T20:28:02.464Z,7.20
2019-02-04T20:30:45.475Z,8.03
2019-02-04T20:33:10.480Z,8.53
2019-02-04T20:35:39.617Z,7.20
2019-02-04T20:38:09.468Z,9.00
2019-02-04T20:40:39.503Z,9.97
2019-02-04T20:43:09.222Z,7.23
2019-02-04T20:45:38.898Z,10.17
2019-02-04T20:48:10.877Z,8.23
2019-02-04T20:50:41.317Z,9.37
2019-02-04T20:53:10.970Z,10.47
2019-02-04T20:55:40.870Z,9.77
2019-02-04T20:58:10.303Z,12.23
2019-02-04T21:00:39.816Z,9.83
2019-02-04T21:03:09.288Z,11.00
2019-02-04T21:05:38.700Z,9.17
2019-02-04T21:08:08.322Z,9.30
2019-02-04T21:10:38.095Z,8.40
2019-02-04T21:13:07.549Z,9.60
2019-02-04T21:15:37.090Z,6.93
2019-02-04T21:18:06.821Z,8.87
2019-02-04T21:20:36.239Z,9.10
2019-02-04T21:23:05.765Z,9.23
2019-02-04T21:25:35.435Z,8.63
2019-02-04T21:28:05.371Z,8.43
2019-02-04T21:30:37.272Z,6.90
2019-02-04T21:33:06.996Z,9.40
2019-02-04T21:35:36.500Z,9.03
2019-02-04T21:38:06.576Z,8.17
2019-02-04T21:40:35.983Z,7.90
2019-02-04T21:43:05.793Z,8.57
2019-02-04T21:45:35.306Z,8.20
2019-02-04T21:48:05.273Z,7.00
2019-02-04T21:50:35.041Z,7.37
2019-02-04T21:53:04.569Z,7.37
2019-02-04T21:55:33.956Z,7.90
2019-02-04T21:58:03.354Z,7.83
2019-02-04T22:00:37.771Z,6.77
2019-02-04T22:03:07.324Z,8.73
2019-02-04T22:05:36.819Z,6.57
2019-02-04T22:08:07.455Z,10.53
2019-02-04T22:10:36.800Z,7.73
2019-02-04T22:13:06.231Z,5.67
2019-02-04T22:15:35.967Z,8.93
2019-02-04T22:18:07.121Z,7.17
2019-02-04T22:20:36.867Z,7.97
2019-02-04T22:23:06.286Z,5.80
2019-02-04T22:25:35.752Z,8.80
2019-02-04T22:28:05.809Z,5.63
2019-02-04T22:30:35.237Z,5.20
2019-02-04T22:33:04.764Z,8.13
2019-02-04T22:35:34.132Z,5.20
2019-02-04T22:38:03.763Z,7.83
2019-02-04T22:40:33.168Z,6.80
2019-02-04T22:43:02.634Z,7.50
2019-02-04T22:45:32.075Z,5.83
2019-02-04T22:48:01.516Z,8.10
2019-02-04T22:50:31.773Z,5.67
2019-02-04T22:53:02.244Z,6.77
2019-02-04T22:55:32.591Z,6.93
2019-02-04T22:58:02.297Z,8.73
2019-02-04T23:00:56.792Z,7.30
2019-02-04T23:03:26.533Z,6.00
2019-02-04T23:05:55.967Z,6.70
2019-02-04T23:08:25.371Z,5.40
2019-02-04T23:10:54.839Z,7.83
2019-02-04T23:13:24.215Z,7.17
2019-02-04T23:15:54.250Z,7.40
2019-02-04T23:18:23.664Z,5.77
2019-02-04T23:20:53.302Z,7.43
2019-02-04T23:23:22.637Z,9.07
2019-02-04T23:25:52.319Z,7.67
2019-02-04T23:28:21.653Z,5.67
2019-02-04T23:30:51.246Z,8.23
2019-02-04T23:33:20.673Z,9.10
2019-02-04T23:35:50.071Z,5.47
2019-02-04T23:38:19.426Z,7.90
2019-02-04T23:40:48.811Z,8.33
2019-02-04T23:43:18.166Z,5.80
2019-02-04T23:45:47.520Z,6.70
2019-02-04T23:48:16.836Z,7.23
2019-02-04T23:50:46.311Z,5.27
2019-02-04T23:53:15.716Z,7.53
2019-02-04T23:55:54.284Z,9.73
2019-02-04T23:58:16.153Z,7.87
